Plaisance, Maurice

02:09 MUT le 07 juillet 2015 (GMT +0400)
Pointe d'Esny Mauritius | | Change Station
CLOSE
Current Station
Stations météorologiques personnelles
Location: Grand Port, MAURITIUS
Altitude: 10 ft
Stations météo à proximité

Alt. 10 ft 20.44 °S, 57.73 °E | Updated 3 minutes ago

Partly Cloudy
Partiellement nuageux
63.3 ° F
Paraît 63.3 ° F
N
2.0
Vent Variable Vent de NO
Gusts 6.0 mph

Aujourd'hui
Haut(e) -- | Bas -- ° F
--% Risque de précip.
Hier
Haut(e) -- | Bas -- ° F
Precip. -- pouce
6:45 AM 5:42 PM
Lune gibbeuse décroissante, 72% visible
Pression 30.12 pouce
Visibilité 6.2 Miles terrestres
Nuages Peu 1800 ft
Point de rosée 56 ° F
Humidité 78%
Précipitations 0.00 pouce
Profondeur de la couche neigeuse Non disponible.
UV 0 sur 12
Pollen Non disponible.
Qualité de l'air Non disponible.
Flu Activity Non disponible.
METAR FIMP 062200Z 32003KT 9999 FEW018 18/15 Q1020

More Conditions Fewer Conditions

Pression 30.12 pouce
Visibilité 6.2 Miles terrestres
Nuages Peu 1800 ft
Point de rosée 56 ° F
Humidité 78%
Précipitations 0.00 pouce
Profondeur de la couche neigeuse Non disponible.
UV 0 sur 12
Pollen Non disponible.
Qualité de l'air Non disponible.
Flu Activity Non disponible.
METAR FIMP 062200Z 32003KT 9999 FEW018 18/15 Q1020

More Conditions Fewer Conditions

10-Day Weather Forecast

×

Almanac

Astronomie

Jul. 07, 2015 Lever Coucher
Temps réel
Crépuscule civil
Crépuscule nautique
Crépuscule astronomique
Lune
Durée de lumière visible
Longueur du jour
Tomorrow will be .
, % of the Moon is Illuminated

Extrêmes aujourd'hui

Country Highs Country Lows

Community

WunderPhotos

Upload Photos

1,835,664 Photos téléchargées !

WunderBlogs® & News

Nearby

Qualité de l'air

  Qualité de l'air Indice de la qualité de l'air Polluant
Not available.

Épaisseur de neige

Station Depth Altitude

Activité sismique

Ville Distance Mag. Time & Date
Minimum magnitude displayed is 2.5.

Températures des eaux côtières

Lieu Température

Stations

Stations météo à proximité

Emplacement de la station Température Refroidissement éolien Point de rosée Humidité Vent Precip. Alt. Mise à jour Type